Weather at La Tontouta International Airport

Public forecast

Using degrees Celsius for public forecast. Weather courtesy of forecast.io.

Current aviation weather report (METAR) for La Tontouta International Airport

2024/05/18 12:30 (retrieved 45 minutes ago)

NWWW 181230Z AUTO 24003KT 9999 OVC062 23/19 Q1009 NOSIG

Aviation forecast (TAF) for La Tontouta International Airport

2024/05/18 12:16 (retrieved 59 minutes ago)

TAF NWWW 181100Z 1812/1912 03005KT 9999 BKN060 PROB30 1814/1822 -SHRA PROB40 TEMPO 1900/1912 24008KT SHRA BKN014